KJAC Airport Information

Runway Information
Runway 01 Length 6300 ft width 150 ft
Elevation 6413 ft Threshold 0 ft Heading 20
Runway 19 Length 6300 ft Width 150 ft
Elevation 6451 ft Threshold 0 ft Heading 200
Airport Frequencies
Type ATIS Name ATIS Frequency 120.625 MHZ
Type AWOS Name AWOS 3 Frequency 135.175 MHZ
Type CNTR Name SALT LAKE Frequency 133.25 MHZ
Type CTAF Name CTAF Frequency 118.075 MHZ
Type GND Name GND Frequency 124.55 MHZ
Type RDO Name CASPER RDO Frequency 122.05 MHZ
Type TWR Name TWR Frequency 118.075 MHZ
Type UNIC Name UNICOM Frequency 122.95 MHZ
Airport Navaids
Type VOR-DME Name Jackson Frequency 115400 KHZ
Airport Weather Information & NOTAM
ADDS - METARS form results

(1706 UTC 20 January 2022)
Data provider http://aviationweather.gov/metar/data/
 
METAR text: KJAC 201656Z 17004KT 3/4SM -SN BR OVC003 M12/M13 A3035 RMK AO2 SLP392 P0000 T11171133
Conditions at: KJAC (JACKSON , WY, US) observed 1656 UTC 20 January 2022
Temperature: -11.7°C (11°F)
Dewpoint: -13.3°C ( 8°F) [RH = 88%]
Pressure (altimeter): 30.35 inches Hg (1027.9 mb)
[Sea-level pressure: 1039.2 mb]
Winds: from the S (170 degrees) at 5 MPH (4 knots; 2.1 m/s)
Visibility: 0.75 miles (1.21 km)
Ceiling: 300 feet AGL
Clouds: overcast cloud deck at 300 feet AGL
Weather: -SN BR  (light snow, mist)

METAR text: KJAC 201644Z 13003KT 1SM -SN BR OVC003 M12/M13 A3035 RMK AO2 P0000
Conditions at: KJAC (JACKSON , WY, US) observed 1644 UTC 20 January 2022
Temperature: -12.0°C (10°F)
Dewpoint: -13.0°C ( 9°F) [RH = 92%]
Pressure (altimeter): 30.35 inches Hg (1027.9 mb)
Winds: from the SE (130 degrees) at 3 MPH (3 knots; 1.5 m/s)
Visibility: 1.00 miles (1.61 km)
Ceiling: 300 feet AGL
Clouds: overcast cloud deck at 300 feet AGL
Weather: -SN BR  (light snow, mist)

METAR text: KJAC 201621Z 00000KT 4SM -SN BR OVC003 M12/M13 A3035 RMK AO2 P0000
Conditions at: KJAC (JACKSON , WY, US) observed 1621 UTC 20 January 2022
Temperature: -12.0°C (10°F)
Dewpoint: -13.0°C ( 9°F) [RH = 92%]
Pressure (altimeter): 30.35 inches Hg (1027.9 mb)
Winds: calm
Visibility: 4 miles ( 6 km)
Ceiling: 300 feet AGL
Clouds: overcast cloud deck at 300 feet AGL
Weather: -SN BR  (light snow, mist)

METAR text: KJAC 201611Z 00000KT 2SM -SN BR OVC003 M12/M13 A3035 RMK AO2 VIS 1 1/4V4 P0000
Conditions at: KJAC (JACKSON , WY, US) observed 1611 UTC 20 January 2022
Temperature: -12.0°C (10°F)
Dewpoint: -13.0°C ( 9°F) [RH = 92%]
Pressure (altimeter): 30.35 inches Hg (1027.9 mb)
Winds: calm
Visibility: 2.00 miles (3.22 km)
Ceiling: 300 feet AGL
Clouds: overcast cloud deck at 300 feet AGL
Weather: -SN BR  (light snow, mist)

Forecast for: KJAC (JACKSON , WY, US)
Text: KJAC 201308Z 2013/2112 36005KT P6SM VCFG BKN004
Forecast period: 1300 to 1700 UTC 20 January 2022
Forecast type: FROM: standard forecast or significant change
Winds: from the N (360 degrees) at 6 MPH (5 knots; 2.6 m/s)
Visibility: 6 or more miles (10+ km)
Ceiling: 400 feet AGL
Clouds: broken clouds at 400 feet AGL
Weather: VCFG  (fog in vicinity)
Text: TEMPO 2013/2017 6SM -SN BR
Forecast period: 1300 to 1700 UTC 20 January 2022
Forecast type: TEMPORARY: The following changes expected for less than half the time period
Visibility: 6 miles (10 km)
Ceiling: unknown
Clouds: missing
Weather: -SN BR  (light snow, mist)
Text: FM201700 VRB05KT P6SM -SN SCT015 OVC035
Forecast period: 1700 UTC 20 January 2022 to 0000 UTC 21 January 2022
Forecast type: FROM: standard forecast or significant change
Winds: variable direction winds at 6 MPH (5 knots; 2.6 m/s)
Visibility: 6 or more miles (10+ km)
Ceiling: 3500 feet AGL
Clouds: scattered clouds at 1500 feet AGL
overcast cloud deck at 3500 feet AGL
Weather: -SN  (light snow)
Text: FM210000 22010KT 2SM -SN OVC020
Forecast period: 0000 to 0800 UTC 21 January 2022
Forecast type: FROM: standard forecast or significant change
Winds: from the SW (220 degrees) at 12 MPH (10 knots; 5.1 m/s)
Visibility: 2.00 miles (3.22 km)
Ceiling: 2000 feet AGL
Clouds: overcast cloud deck at 2000 feet AGL
Weather: -SN  (light snow)
Text: FM210800 20007KT 6SM -SN SCT025 OVC040
Forecast period: 0800 to 1200 UTC 21 January 2022
Forecast type: FROM: standard forecast or significant change
Winds: from the SSW (200 degrees) at 8 MPH (7 knots; 3.6 m/s)
Visibility: 6 miles (10 km)
Ceiling: 4000 feet AGL
Clouds: scattered clouds at 2500 feet AGL
overcast cloud deck at 4000 feet AGL
Weather: -SN  (light snow)